createdAt,value
2018-08-24T00:00:35.040Z,1012.84
2018-08-24T00:01:35.000Z,1012.83
2018-08-24T00:02:35.213Z,1012.82
2018-08-24T00:03:34.979Z,1012.79
2018-08-24T00:04:35.031Z,1012.78
2018-08-24T00:05:35.087Z,1012.76
2018-08-24T00:06:35.002Z,1012.79
2018-08-24T00:07:35.018Z,1012.81
2018-08-24T00:08:35.298Z,1012.75
2018-08-24T00:09:35.096Z,1012.83
2018-08-24T00:10:35.118Z,1012.81
2018-08-24T00:11:35.093Z,1012.82
2018-08-24T00:12:34.988Z,1012.85
2018-08-24T00:13:35.001Z,1012.85
2018-08-24T00:14:35.042Z,1012.88
2018-08-24T00:15:35.139Z,1012.88
2018-08-24T00:16:35.086Z,1012.9
2018-08-24T00:17:35.025Z,1012.9
2018-08-24T00:18:35.001Z,1012.89
2018-08-24T00:19:34.997Z,1012.91
2018-08-24T00:20:35.046Z,1012.96
2018-08-24T00:21:35.262Z,1012.94
2018-08-24T00:22:35.087Z,1012.94
2018-08-24T00:23:35.182Z,1012.94
2018-08-24T00:24:35.004Z,1012.94
2018-08-24T00:25:35.024Z,1012.89
2018-08-24T00:26:35.010Z,1012.93
2018-08-24T00:27:34.995Z,1012.87
2018-08-24T00:28:35.391Z,1012.86
2018-08-24T00:29:35.002Z,1012.89
2018-08-24T00:30:35.102Z,1012.89
2018-08-24T00:31:35.325Z,1012.86
2018-08-24T00:32:35.122Z,1012.82
2018-08-24T00:33:35.092Z,1012.85
2018-08-24T00:34:35.026Z,1012.82
2018-08-24T00:35:35.037Z,1012.86
2018-08-24T00:36:35.218Z,1012.87
2018-08-24T00:37:35.145Z,1012.89
2018-08-24T00:38:35.038Z,1012.88
2018-08-24T00:39:35.116Z,1012.9
2018-08-24T00:40:35.219Z,1012.89
2018-08-24T00:41:36.893Z,1012.93
2018-08-24T00:42:35.162Z,1012.9
2018-08-24T00:43:35.031Z,1012.85
2018-08-24T00:44:35.034Z,1012.83
2018-08-24T00:45:35.017Z,1012.87
2018-08-24T00:46:35.300Z,1012.81
2018-08-24T00:47:35.126Z,1012.77
2018-08-24T00:48:35.565Z,1012.77
2018-08-24T00:49:35.066Z,1012.72
2018-08-24T00:50:35.200Z,1012.7
2018-08-24T00:51:35.203Z,1012.72
2018-08-24T00:52:35.058Z,1012.69
2018-08-24T00:53:35.143Z,1012.72
2018-08-24T00:54:35.155Z,1012.67
2018-08-24T00:55:35.146Z,1012.7
2018-08-24T00:56:35.052Z,1012.69
2018-08-24T00:57:35.107Z,1012.68
2018-08-24T00:58:35.219Z,1012.73
2018-08-24T00:59:35.059Z,1012.68
2018-08-24T01:00:35.264Z,1012.72
2018-08-24T01:01:35.068Z,1012.74
2018-08-24T01:02:35.105Z,1012.77
2018-08-24T01:03:35.075Z,1012.77
2018-08-24T01:04:35.170Z,1012.75
2018-08-24T01:05:35.185Z,1012.73
2018-08-24T01:06:35.088Z,1012.77
2018-08-24T01:07:35.130Z,1012.75
2018-08-24T01:08:35.343Z,1012.71
2018-08-24T01:09:35.287Z,1012.73
2018-08-24T01:10:35.109Z,1012.73
2018-08-24T01:11:35.366Z,1012.78
2018-08-24T01:12:35.101Z,1012.76
2018-08-24T01:13:35.232Z,1012.83
2018-08-24T01:14:35.095Z,1012.78
2018-08-24T01:15:35.195Z,1012.81
2018-08-24T01:16:35.231Z,1012.77
2018-08-24T01:17:35.089Z,1012.72
2018-08-24T01:18:35.067Z,1012.77
2018-08-24T01:19:35.116Z,1012.77
2018-08-24T01:20:35.107Z,1012.78
2018-08-24T01:21:35.114Z,1012.79
2018-08-24T01:22:35.104Z,1012.81
2018-08-24T01:23:35.120Z,1012.83
2018-08-24T01:24:35.083Z,1012.82
2018-08-24T01:25:35.097Z,1012.82
2018-08-24T01:26:35.119Z,1012.84
2018-08-24T01:27:35.068Z,1012.79
2018-08-24T01:28:35.071Z,1012.84
2018-08-24T01:29:35.175Z,1012.86
2018-08-24T01:30:35.087Z,1012.86
2018-08-24T01:31:35.120Z,1012.9
2018-08-24T01:32:35.096Z,1012.93
2018-08-24T01:33:35.121Z,1012.93
2018-08-24T01:34:35.093Z,1012.9
2018-08-24T01:35:35.115Z,1012.93
2018-08-24T01:36:35.397Z,1012.9
2018-08-24T01:37:35.110Z,1012.93
2018-08-24T01:38:35.120Z,1012.93
2018-08-24T01:39:35.077Z,1012.94
2018-08-24T01:40:35.231Z,1012.85
2018-08-24T01:41:35.098Z,1012.93
2018-08-24T01:42:35.092Z,1012.94
2018-08-24T01:43:35.121Z,1012.92
2018-08-24T01:44:35.590Z,1012.9
2018-08-24T01:45:35.286Z,1012.93
2018-08-24T01:46:35.115Z,1012.87
2018-08-24T01:47:35.186Z,1012.88
2018-08-24T01:48:35.214Z,1012.86
2018-08-24T01:49:35.105Z,1012.85
2018-08-24T01:50:35.209Z,1012.88
2018-08-24T01:51:35.348Z,1012.91
2018-08-24T01:52:35.244Z,1012.92
2018-08-24T01:53:35.126Z,1012.95
2018-08-24T01:54:35.170Z,1012.95
2018-08-24T01:55:35.269Z,1012.98
2018-08-24T01:56:35.291Z,1012.97
2018-08-24T01:57:35.134Z,1012.98
2018-08-24T01:58:35.166Z,1013
2018-08-24T01:59:35.154Z,1013.04
2018-08-24T02:00:35.225Z,1013.02
2018-08-24T02:01:35.153Z,1013.01
2018-08-24T02:02:35.199Z,1012.95
2018-08-24T02:03:35.144Z,1012.97
2018-08-24T02:04:35.535Z,1012.94
2018-08-24T02:05:35.187Z,1012.96
2018-08-24T02:06:35.185Z,1013
2018-08-24T02:07:35.146Z,1012.99
2018-08-24T02:08:35.301Z,1013.03
2018-08-24T02:09:35.251Z,1013.03
2018-08-24T02:10:35.222Z,1013.07
2018-08-24T02:11:35.271Z,1013.06
2018-08-24T02:12:35.144Z,1013.1
2018-08-24T02:13:35.222Z,1013.09
2018-08-24T02:14:35.410Z,1013.09
2018-08-24T02:15:35.332Z,1013.08
2018-08-24T02:16:35.274Z,1013.09
2018-08-24T02:17:35.178Z,1013.08
2018-08-24T02:18:35.125Z,1013.11
2018-08-24T02:19:35.161Z,1013.06
2018-08-24T02:20:35.178Z,1013.05
2018-08-24T02:21:35.223Z,1013.03
2018-08-24T02:22:35.502Z,1013.02
2018-08-24T02:23:35.236Z,1013.03
2018-08-24T02:24:35.254Z,1013.02
2018-08-24T02:25:35.323Z,1012.99
2018-08-24T02:26:35.272Z,1012.96
2018-08-24T02:27:35.326Z,1012.94
2018-08-24T02:28:35.174Z,1012.92
2018-08-24T02:29:35.306Z,1012.9
2018-08-24T02:30:35.243Z,1012.92
2018-08-24T02:31:35.436Z,1012.93
2018-08-24T02:32:35.206Z,1012.84
2018-08-24T02:33:35.223Z,1012.87
2018-08-24T02:34:35.269Z,1012.87
2018-08-24T02:35:35.294Z,1012.8
2018-08-24T02:36:35.302Z,1012.79
2018-08-24T02:37:35.448Z,1012.82
2018-08-24T02:38:35.304Z,1012.78
2018-08-24T02:39:35.243Z,1012.83
2018-08-24T02:40:35.249Z,1012.84
2018-08-24T02:41:35.267Z,1012.81
2018-08-24T02:42:35.378Z,1012.8
2018-08-24T02:43:35.443Z,1012.82
2018-08-24T02:44:35.322Z,1012.79
2018-08-24T02:45:35.312Z,1012.79
2018-08-24T02:46:35.223Z,1012.8
2018-08-24T02:47:35.357Z,1012.76
2018-08-24T02:48:35.210Z,1012.75
2018-08-24T02:49:35.294Z,1012.76
2018-08-24T02:50:35.393Z,1012.75
2018-08-24T02:51:35.293Z,1012.76
2018-08-24T02:52:35.247Z,1012.8
2018-08-24T02:53:35.554Z,1012.76
2018-08-24T02:54:35.240Z,1012.78
2018-08-24T02:55:35.314Z,1012.79
2018-08-24T02:56:35.290Z,1012.85
2018-08-24T02:57:35.213Z,1012.75
2018-08-24T02:58:35.225Z,1012.79
2018-08-24T02:59:35.262Z,1012.78
2018-08-24T03:00:35.308Z,1012.81
2018-08-24T03:01:35.209Z,1012.81
2018-08-24T03:02:35.505Z,1012.79
2018-08-24T03:03:35.216Z,1012.83
2018-08-24T03:04:35.204Z,1012.79
2018-08-24T03:05:35.853Z,1012.84
2018-08-24T03:06:35.255Z,1012.81
2018-08-24T03:07:35.286Z,1012.81
2018-08-24T03:08:35.235Z,1012.81
2018-08-24T03:09:35.242Z,1012.8
2018-08-24T03:10:35.358Z,1012.82
2018-08-24T03:11:35.273Z,1012.8
2018-08-24T03:12:35.219Z,1012.77
2018-08-24T03:13:35.349Z,1012.78
2018-08-24T03:14:35.290Z,1012.69
2018-08-24T03:15:35.298Z,1012.67
2018-08-24T03:16:35.232Z,1012.68
2018-08-24T03:17:35.231Z,1012.65
2018-08-24T03:18:35.224Z,1012.69
2018-08-24T03:19:35.304Z,1012.7
2018-08-24T03:20:35.320Z,1012.77
2018-08-24T03:21:35.656Z,1012.79
2018-08-24T03:22:35.244Z,1012.77
2018-08-24T03:23:35.250Z,1012.81
2018-08-24T03:24:35.284Z,1012.87
2018-08-24T03:25:35.353Z,1012.88
2018-08-24T03:26:35.283Z,1012.87
2018-08-24T03:27:35.399Z,1012.84
2018-08-24T03:28:35.247Z,1012.81
2018-08-24T03:29:35.248Z,1012.82
2018-08-24T03:30:35.297Z,1012.77
2018-08-24T03:31:35.364Z,1012.79
2018-08-24T03:32:35.385Z,1012.79
2018-08-24T03:33:35.382Z,1012.78
2018-08-24T03:34:35.529Z,1012.82
2018-08-24T03:35:35.334Z,1012.81
2018-08-24T03:36:35.350Z,1012.81
2018-08-24T03:37:35.243Z,1012.81
2018-08-24T03:38:35.275Z,1012.8
2018-08-24T03:39:35.280Z,1012.8
2018-08-24T03:40:35.325Z,1012.84
2018-08-24T03:41:35.278Z,1012.81
2018-08-24T03:42:35.255Z,1012.88
2018-08-24T03:43:35.299Z,1012.88
2018-08-24T03:44:35.309Z,1012.89
2018-08-24T03:45:35.410Z,1012.95
2018-08-24T03:46:35.400Z,1012.91
2018-08-24T03:47:35.376Z,1012.9
2018-08-24T03:48:35.383Z,1012.88
2018-08-24T03:50:00.016Z,1012.92
2018-08-24T03:50:35.368Z,1012.92
2018-08-24T03:51:35.265Z,1012.92
2018-08-24T03:52:35.320Z,1012.92
2018-08-24T03:53:35.372Z,1012.94
2018-08-24T03:54:41.412Z,1012.94
2018-08-24T03:55:35.287Z,1012.97
2018-08-24T03:56:35.379Z,1012.97
2018-08-24T03:57:35.288Z,1013
2018-08-24T03:58:38.664Z,1012.96
2018-08-24T03:59:47.125Z,1012.93
2018-08-24T04:00:35.324Z,1013
2018-08-24T04:01:36.974Z,1012.98
2018-08-24T04:02:35.443Z,1012.97
2018-08-24T04:03:35.337Z,1013.01
2018-08-24T04:04:35.270Z,1013.06
2018-08-24T04:05:35.318Z,1013.02
2018-08-24T04:06:35.401Z,1013.05
2018-08-24T04:07:35.356Z,1013.04
2018-08-24T04:08:36.821Z,1013.03
2018-08-24T04:09:35.303Z,1013.05
2018-08-24T04:10:35.417Z,1013.06
2018-08-24T04:11:35.326Z,1013.05
2018-08-24T04:12:35.360Z,1013.01
2018-08-24T04:13:35.369Z,1013.1
2018-08-24T04:14:35.339Z,1013.12
2018-08-24T04:15:35.584Z,1013.12
2018-08-24T04:16:35.359Z,1013.08
2018-08-24T04:17:35.327Z,1013.09
2018-08-24T04:18:35.288Z,1013.12
2018-08-24T04:19:35.638Z,1013.09
2018-08-24T04:20:35.296Z,1013.1
2018-08-24T04:21:35.478Z,1013.11
2018-08-24T04:22:35.615Z,1013.12
2018-08-24T04:23:35.377Z,1013.14
2018-08-24T04:24:35.498Z,1013.12
2018-08-24T04:25:35.571Z,1013.12
2018-08-24T04:26:35.993Z,1013.12
2018-08-24T04:27:35.355Z,1013.18
2018-08-24T04:28:35.524Z,1013.16
2018-08-24T04:29:35.410Z,1013.17
2018-08-24T04:30:35.387Z,1013.19
2018-08-24T04:31:35.527Z,1013.2
2018-08-24T04:32:35.399Z,1013.17
2018-08-24T04:33:35.492Z,1013.18
2018-08-24T04:34:36.665Z,1013.18
2018-08-24T04:35:35.489Z,1013.22
2018-08-24T04:36:35.407Z,1013.21
2018-08-24T04:37:35.368Z,1013.24
2018-08-24T04:38:35.339Z,1013.25
2018-08-24T04:39:35.503Z,1013.25
2018-08-24T04:40:35.433Z,1013.28
2018-08-24T04:41:35.690Z,1013.3
2018-08-24T04:42:35.391Z,1013.28
2018-08-24T04:43:35.349Z,1013.32
2018-08-24T04:44:35.453Z,1013.32
2018-08-24T04:45:35.723Z,1013.33
2018-08-24T04:46:35.488Z,1013.35
2018-08-24T04:47:35.386Z,1013.34
2018-08-24T04:48:35.420Z,1013.36
2018-08-24T04:49:35.978Z,1013.36
2018-08-24T04:50:35.727Z,1013.39
2018-08-24T04:51:37.436Z,1013.38
2018-08-24T04:52:35.399Z,1013.39
2018-08-24T04:53:35.349Z,1013.34
2018-08-24T04:54:35.357Z,1013.42
2018-08-24T04:55:35.557Z,1013.42
2018-08-24T04:56:35.541Z,1013.42
2018-08-24T04:57:35.519Z,1013.45
2018-08-24T04:58:35.363Z,1013.5
2018-08-24T04:59:35.432Z,1013.49
2018-08-24T05:00:35.640Z,1013.51
2018-08-24T05:01:35.425Z,1013.46
2018-08-24T05:02:35.435Z,1013.5
2018-08-24T05:03:35.509Z,1013.51
2018-08-24T05:04:35.538Z,1013.45
2018-08-24T05:05:36.293Z,1013.5
2018-08-24T05:06:35.754Z,1013.53
2018-08-24T05:07:35.509Z,1013.52
2018-08-24T05:08:35.449Z,1013.5
2018-08-24T05:09:35.510Z,1013.54
2018-08-24T05:10:35.794Z,1013.57
2018-08-24T05:11:35.629Z,1013.59
2018-08-24T05:12:35.495Z,1013.55
2018-08-24T05:13:35.662Z,1013.57
2018-08-24T05:14:35.408Z,1013.51
2018-08-24T05:15:35.560Z,1013.5
2018-08-24T05:16:35.450Z,1013.52
2018-08-24T05:17:35.412Z,1013.5
2018-08-24T05:18:35.441Z,1013.48
2018-08-24T05:19:35.433Z,1013.5
2018-08-24T05:20:35.507Z,1013.5
2018-08-24T05:21:35.421Z,1013.5
2018-08-24T05:22:35.681Z,1013.54
2018-08-24T05:23:35.434Z,1013.56
2018-08-24T05:24:35.577Z,1013.59
2018-08-24T05:25:36.064Z,1013.57
2018-08-24T05:26:35.507Z,1013.59
2018-08-24T05:27:35.371Z,1013.61
2018-08-24T05:28:36.112Z,1013.62
2018-08-24T05:29:35.443Z,1013.63
2018-08-24T05:30:35.512Z,1013.63
2018-08-24T05:31:35.485Z,1013.65
2018-08-24T05:32:35.439Z,1013.66
2018-08-24T05:33:36.306Z,1013.72
2018-08-24T05:34:35.490Z,1013.74
2018-08-24T05:35:35.710Z,1013.77
2018-08-24T05:36:35.512Z,1013.78
2018-08-24T05:37:35.420Z,1013.82
2018-08-24T05:38:35.454Z,1013.82
2018-08-24T05:39:35.445Z,1013.86
2018-08-24T05:40:35.499Z,1013.85
2018-08-24T05:41:35.723Z,1013.85
2018-08-24T05:42:35.474Z,1013.89
2018-08-24T05:43:35.411Z,1013.86
2018-08-24T05:44:35.497Z,1013.88
2018-08-24T05:45:35.463Z,1013.9
2018-08-24T05:46:35.474Z,1013.85
2018-08-24T05:47:35.546Z,1013.85
2018-08-24T05:48:35.468Z,1013.88
2018-08-24T05:49:35.867Z,1013.82
2018-08-24T05:50:35.459Z,1013.86
2018-08-24T05:51:36.159Z,1013.87
2018-08-24T05:52:36.239Z,1013.88
2018-08-24T05:53:35.409Z,1013.89
2018-08-24T05:54:35.539Z,1013.89
2018-08-24T05:55:36.058Z,1013.9
2018-08-24T05:56:35.454Z,1013.86
2018-08-24T05:57:36.336Z,1013.87
2018-08-24T05:58:35.473Z,1013.82
2018-08-24T05:59:35.601Z,1013.8
2018-08-24T06:00:35.490Z,1013.79
2018-08-24T06:01:36.275Z,1013.82
2018-08-24T06:02:35.630Z,1013.83
2018-08-24T06:03:35.500Z,1013.85
2018-08-24T06:04:35.543Z,1013.87
2018-08-24T06:05:35.555Z,1013.84
2018-08-24T06:06:35.498Z,1013.84
2018-08-24T06:07:35.882Z,1013.89
2018-08-24T06:08:35.558Z,1013.92
2018-08-24T06:09:35.499Z,1013.93
2018-08-24T06:10:35.523Z,1013.95
2018-08-24T06:11:35.678Z,1013.94
2018-08-24T06:12:35.568Z,1013.91
2018-08-24T06:13:35.553Z,1013.92
2018-08-24T06:14:35.449Z,1013.94
2018-08-24T06:15:35.529Z,1013.98
2018-08-24T06:16:35.541Z,1013.91
2018-08-24T06:17:35.572Z,1013.92
2018-08-24T06:18:35.510Z,1013.97
2018-08-24T06:19:35.472Z,1013.97
2018-08-24T06:20:35.629Z,1013.99
2018-08-24T06:21:35.649Z,1014.03
2018-08-24T06:22:35.671Z,1014.05
2018-08-24T06:23:35.613Z,1014.07
2018-08-24T06:24:35.877Z,1014.09
2018-08-24T06:25:35.639Z,1014.09
2018-08-24T06:26:35.580Z,1014.08
2018-08-24T06:27:35.971Z,1014.05
2018-08-24T06:28:35.590Z,1014.08
2018-08-24T06:29:35.529Z,1014.05
2018-08-24T06:30:35.544Z,1014.03
2018-08-24T06:31:36.269Z,1014.05
2018-08-24T06:32:35.515Z,1013.98
2018-08-24T06:33:35.946Z,1013.96
2018-08-24T06:34:35.499Z,1013.95
2018-08-24T06:35:35.629Z,1013.96
2018-08-24T06:36:35.491Z,1013.99
2018-08-24T06:37:35.507Z,1013.96
2018-08-24T06:38:35.567Z,1014.02
2018-08-24T06:39:35.497Z,1014.01
2018-08-24T06:40:35.577Z,1014.07
2018-08-24T06:41:35.573Z,1014.03
2018-08-24T06:42:35.492Z,1014.01
2018-08-24T06:43:35.747Z,1014.03
2018-08-24T06:44:36.609Z,1014.03
2018-08-24T06:45:35.574Z,1014.06
2018-08-24T06:46:35.591Z,1014.05
2018-08-24T06:47:35.943Z,1014.1
2018-08-24T06:48:36.196Z,1014.09
2018-08-24T06:49:35.640Z,1014.13
2018-08-24T06:50:35.619Z,1014.12
2018-08-24T06:51:35.498Z,1014.12
2018-08-24T06:52:36.279Z,1014.14
2018-08-24T06:53:35.833Z,1014.16
2018-08-24T06:54:35.509Z,1014.17
2018-08-24T06:55:35.590Z,1014.17
2018-08-24T06:56:35.518Z,1014.2
2018-08-24T06:57:35.526Z,1014.21
2018-08-24T06:58:35.538Z,1014.2
2018-08-24T06:59:35.697Z,1014.22
2018-08-24T07:00:35.624Z,1014.21
2018-08-24T07:01:35.561Z,1014.24
2018-08-24T07:02:35.757Z,1014.26
2018-08-24T07:03:35.580Z,1014.26
2018-08-24T07:04:35.618Z,1014.25
2018-08-24T07:05:35.959Z,1014.27
2018-08-24T07:06:35.531Z,1014.27
2018-08-24T07:07:35.496Z,1014.25
2018-08-24T07:08:35.516Z,1014.31
2018-08-24T07:09:35.736Z,1014.23
2018-08-24T07:10:35.715Z,1014.3
2018-08-24T07:11:35.614Z,1014.25
2018-08-24T07:12:35.676Z,1014.29
2018-08-24T07:13:36.478Z,1014.31
2018-08-24T07:14:36.526Z,1014.28
2018-08-24T07:15:35.553Z,1014.29
2018-08-24T07:16:35.537Z,1014.32
2018-08-24T07:17:35.633Z,1014.29
2018-08-24T07:18:35.594Z,1014.31
2018-08-24T07:19:35.669Z,1014.27
2018-08-24T07:20:35.575Z,1014.27
2018-08-24T07:21:36.804Z,1014.32
2018-08-24T07:22:35.612Z,1014.34
2018-08-24T07:23:35.609Z,1014.3
2018-08-24T07:24:35.604Z,1014.29
2018-08-24T07:25:35.642Z,1014.28
2018-08-24T07:26:36.152Z,1014.3
2018-08-24T07:27:35.569Z,1014.31
2018-08-24T07:28:35.533Z,1014.36
2018-08-24T07:29:35.949Z,1014.32
2018-08-24T07:30:36.148Z,1014.31
2018-08-24T07:31:35.627Z,1014.32
2018-08-24T07:32:36.061Z,1014.34
2018-08-24T07:33:35.676Z,1014.36
2018-08-24T07:34:36.226Z,1014.32
2018-08-24T07:35:35.781Z,1014.3
2018-08-24T07:36:35.585Z,1014.34
2018-08-24T07:37:35.611Z,1014.34
2018-08-24T07:38:35.986Z,1014.33
2018-08-24T07:39:35.644Z,1014.39
2018-08-24T07:40:35.579Z,1014.35
2018-08-24T07:41:36.175Z,1014.35
2018-08-24T07:42:35.544Z,1014.33
2018-08-24T07:43:35.795Z,1014.32
2018-08-24T07:44:35.562Z,1014.32
2018-08-24T07:45:35.624Z,1014.33
2018-08-24T07:46:35.649Z,1014.33
2018-08-24T07:47:35.765Z,1014.32
2018-08-24T07:48:35.560Z,1014.35
2018-08-24T07:49:35.570Z,1014.36
2018-08-24T07:50:35.587Z,1014.41
2018-08-24T07:51:35.678Z,1014.4
2018-08-24T07:52:35.671Z,1014.43
2018-08-24T07:53:35.662Z,1014.46
2018-08-24T07:54:35.591Z,1014.44
2018-08-24T07:55:35.790Z,1014.49
2018-08-24T07:56:35.580Z,1014.46
2018-08-24T07:57:35.606Z,1014.45
2018-08-24T07:58:35.796Z,1014.47
2018-08-24T07:59:35.589Z,1014.52
2018-08-24T08:00:35.580Z,1014.46
2018-08-24T08:01:35.639Z,1014.53
2018-08-24T08:02:35.680Z,1014.56
2018-08-24T08:03:35.963Z,1014.52
2018-08-24T08:04:35.797Z,1014.55
2018-08-24T08:05:35.581Z,1014.57
2018-08-24T08:06:35.638Z,1014.55
2018-08-24T08:07:35.680Z,1014.54
2018-08-24T08:08:35.741Z,1014.56
2018-08-24T08:09:35.626Z,1014.56
2018-08-24T08:10:35.587Z,1014.59
2018-08-24T08:11:35.597Z,1014.63
2018-08-24T08:12:36.136Z,1014.6
2018-08-24T08:13:35.593Z,1014.59
2018-08-24T08:14:35.597Z,1014.61
2018-08-24T08:15:35.827Z,1014.66
2018-08-24T08:16:35.590Z,1014.59
2018-08-24T08:17:35.649Z,1014.58
2018-08-24T08:18:35.730Z,1014.6
2018-08-24T08:19:35.697Z,1014.59
2018-08-24T08:20:35.604Z,1014.56
2018-08-24T08:21:35.573Z,1014.61
2018-08-24T08:22:35.597Z,1014.58
2018-08-24T08:23:35.631Z,1014.61
2018-08-24T08:24:35.681Z,1014.62
2018-08-24T08:25:35.595Z,1014.59
2018-08-24T08:26:35.603Z,1014.6
2018-08-24T08:27:35.608Z,1014.56
2018-08-24T08:28:35.672Z,1014.57
2018-08-24T08:29:35.723Z,1014.58
2018-08-24T08:30:36.171Z,1014.62
2018-08-24T08:31:35.647Z,1014.61
2018-08-24T08:32:35.600Z,1014.62
2018-08-24T08:33:35.725Z,1014.68
2018-08-24T08:34:35.902Z,1014.68
2018-08-24T08:35:35.764Z,1014.64
2018-08-24T08:36:35.627Z,1014.69
2018-08-24T08:37:35.999Z,1014.72
2018-08-24T08:38:36.005Z,1014.71
2018-08-24T08:39:35.621Z,1014.71
2018-08-24T08:40:35.771Z,1014.75
2018-08-24T08:41:35.781Z,1014.76
2018-08-24T08:42:35.753Z,1014.77
2018-08-24T08:43:35.657Z,1014.77
2018-08-24T08:44:35.718Z,1014.74
2018-08-24T08:45:35.650Z,1014.78
2018-08-24T08:46:35.780Z,1014.79
2018-08-24T08:47:35.717Z,1014.79
2018-08-24T08:48:35.679Z,1014.82
2018-08-24T08:49:35.904Z,1014.93
2018-08-24T08:50:35.973Z,1014.98
2018-08-24T08:51:35.672Z,1015.07
2018-08-24T08:52:35.701Z,1015.07
2018-08-24T08:53:35.779Z,1015.09
2018-08-24T08:54:35.748Z,1015.08
2018-08-24T08:55:35.703Z,1015.01
2018-08-24T08:56:35.664Z,1015.02
2018-08-24T08:57:35.822Z,1015.07
2018-08-24T08:58:36.016Z,1015.09
2018-08-24T08:59:35.631Z,1015.04
2018-08-24T09:00:35.724Z,1015.1
2018-08-24T09:01:35.937Z,1015.13
2018-08-24T09:02:36.061Z,1015.12
2018-08-24T09:03:35.726Z,1015.1
2018-08-24T09:04:36.468Z,1015.14
2018-08-24T09:05:35.777Z,1015.13
2018-08-24T09:06:35.750Z,1015.22
2018-08-24T09:07:36.002Z,1015.19
2018-08-24T09:08:35.781Z,1015.25
2018-08-24T09:09:35.848Z,1015.18
2018-08-24T09:10:35.853Z,1015.2
2018-08-24T09:11:36.008Z,1015.26
2018-08-24T09:12:35.717Z,1015.3
2018-08-24T09:13:35.985Z,1015.31
2018-08-24T09:14:36.003Z,1015.37
2018-08-24T09:15:35.827Z,1015.41
2018-08-24T09:16:35.691Z,1015.46
2018-08-24T09:17:35.685Z,1015.44
2018-08-24T09:18:35.875Z,1015.45
2018-08-24T09:19:35.715Z,1015.42
2018-08-24T09:20:35.736Z,1015.45
2018-08-24T09:21:35.699Z,1015.48
2018-08-24T09:22:36.202Z,1015.52
2018-08-24T09:23:35.749Z,1015.53
2018-08-24T09:24:35.803Z,1015.57
2018-08-24T09:25:36.164Z,1015.61
2018-08-24T09:26:35.717Z,1015.6
2018-08-24T09:27:35.804Z,1015.63
2018-08-24T09:28:35.933Z,1015.64
2018-08-24T09:29:35.685Z,1015.64
2018-08-24T09:30:35.700Z,1015.69
2018-08-24T09:31:35.794Z,1015.74
2018-08-24T09:32:36.100Z,1015.74
2018-08-24T09:33:35.668Z,1015.76
2018-08-24T09:34:35.853Z,1015.8
2018-08-24T09:35:35.700Z,1015.9
2018-08-24T09:36:35.753Z,1015.88
2018-08-24T09:37:35.707Z,1015.9
2018-08-24T09:38:35.800Z,1015.98
2018-08-24T09:39:35.712Z,1016.11
2018-08-24T09:40:35.810Z,1016.17
2018-08-24T09:41:35.710Z,1016.11
2018-08-24T09:42:36.030Z,1016.17
2018-08-24T09:43:35.695Z,1016.19
2018-08-24T09:44:35.846Z,1016.24
2018-08-24T09:45:35.838Z,1016.24
2018-08-24T09:46:35.825Z,1016.21
2018-08-24T09:47:35.779Z,1016.24
2018-08-24T09:48:36.378Z,1016.25
2018-08-24T09:49:35.808Z,1016.29
2018-08-24T09:50:35.727Z,1016.23
2018-08-24T09:51:35.817Z,1016.25
2018-08-24T09:52:36.019Z,1016.22
2018-08-24T09:53:36.112Z,1016.2
2018-08-24T09:54:35.934Z,1016.23
2018-08-24T09:55:35.754Z,1016.22
2018-08-24T09:56:35.779Z,1016.18
2018-08-24T09:57:35.766Z,1016.16
2018-08-24T09:58:35.737Z,1016.2
2018-08-24T09:59:35.738Z,1016.16
2018-08-24T10:00:35.802Z,1016.22
2018-08-24T10:01:36.185Z,1016.16
2018-08-24T10:02:36.153Z,1016.15
2018-08-24T10:03:35.810Z,1016.18
2018-08-24T10:04:35.732Z,1016.17
2018-08-24T10:05:36.040Z,1016.15
2018-08-24T10:06:35.886Z,1016.15
2018-08-24T10:07:35.956Z,1016.15
2018-08-24T10:08:36.091Z,1016.16
2018-08-24T10:09:35.918Z,1016.12
2018-08-24T10:10:35.800Z,1016.17
2018-08-24T10:11:35.990Z,1016.08
2018-08-24T10:12:36.056Z,1016.13
2018-08-24T10:13:35.761Z,1016.11
2018-08-24T10:14:36.163Z,1016.13
2018-08-24T10:16:35.966Z,1016.07
2018-08-24T10:17:36.074Z,1016.07
2018-08-24T10:18:35.868Z,1016.05
2018-08-24T10:19:35.976Z,1016.05
2018-08-24T10:20:36.912Z,1016
2018-08-24T10:21:35.983Z,1016
2018-08-24T10:22:35.991Z,1015.94
2018-08-24T10:23:35.775Z,1016
2018-08-24T10:24:35.904Z,1015.99
2018-08-24T10:25:35.912Z,1016.01
2018-08-24T10:26:36.020Z,1016.01
2018-08-24T10:27:36.974Z,1016.02
2018-08-24T10:28:35.789Z,1016.13
2018-08-24T10:29:36.231Z,1016.14
2018-08-24T10:30:35.943Z,1016.17
2018-08-24T10:31:36.007Z,1016.14
2018-08-24T10:32:35.771Z,1016.17
2018-08-24T10:33:36.111Z,1016.18
2018-08-24T10:34:35.908Z,1016.15
2018-08-24T10:35:35.771Z,1016.21
2018-08-24T10:36:36.008Z,1016.2
2018-08-24T10:37:36.202Z,1016.17
2018-08-24T10:38:36.104Z,1016.19
2018-08-24T10:39:36.111Z,1016.17
2018-08-24T10:40:35.915Z,1016.2
2018-08-24T10:41:36.118Z,1016.16
2018-08-24T10:42:36.544Z,1016.17
2018-08-24T10:43:35.769Z,1016.18
2018-08-24T10:44:36.148Z,1016.18
2018-08-24T10:45:36.254Z,1016.2
2018-08-24T10:46:35.948Z,1016.19
2018-08-24T10:47:36.076Z,1016.18
2018-08-24T10:48:36.168Z,1016.21
2018-08-24T10:49:35.877Z,1016.16
2018-08-24T10:50:35.990Z,1016.1
2018-08-24T10:51:36.171Z,1016.1
2018-08-24T10:52:36.001Z,1016.08
2018-08-24T10:53:35.997Z,1016.1
2018-08-24T10:54:35.916Z,1016.1
2018-08-24T10:55:35.990Z,1016.1
2018-08-24T10:56:35.940Z,1016.17
2018-08-24T10:57:36.134Z,1016.18
2018-08-24T10:58:35.938Z,1016.16
2018-08-24T10:59:35.872Z,1016.17
2018-08-24T11:00:35.948Z,1016.17
2018-08-24T11:01:35.869Z,1016.22
2018-08-24T11:02:35.807Z,1016.22
2018-08-24T11:03:35.968Z,1016.23
2018-08-24T11:04:35.876Z,1016.2
2018-08-24T11:05:35.878Z,1016.24
2018-08-24T11:06:35.990Z,1016.25
2018-08-24T11:07:36.279Z,1016.21
2018-08-24T11:08:35.888Z,1016.18
2018-08-24T11:09:35.901Z,1016.12
2018-08-24T11:10:36.117Z,1016.11
2018-08-24T11:11:36.036Z,1016.09
2018-08-24T11:12:35.921Z,1016.07
2018-08-24T11:13:35.930Z,1016.08
2018-08-24T11:14:35.841Z,1016.05
2018-08-24T11:15:35.952Z,1016.07
2018-08-24T11:16:37.110Z,1016.09
2018-08-24T11:17:36.185Z,1016.03
2018-08-24T11:18:35.967Z,1016.09
2018-08-24T11:19:35.879Z,1016.08
2018-08-24T11:20:35.970Z,1016.1
2018-08-24T11:21:35.891Z,1016.05
2018-08-24T11:22:36.310Z,1016.11
2018-08-24T11:23:35.824Z,1016.11
2018-08-24T11:24:37.236Z,1016.15
2018-08-24T11:25:36.219Z,1016.17
2018-08-24T11:26:35.903Z,1016.16
2018-08-24T11:27:36.053Z,1016.21
2018-08-24T11:28:36.310Z,1016.22
2018-08-24T11:29:35.847Z,1016.21
2018-08-24T11:30:36.067Z,1016.19
2018-08-24T11:31:36.065Z,1016.19
2018-08-24T11:32:36.179Z,1016.19
2018-08-24T11:33:35.980Z,1016.18
2018-08-24T11:34:35.977Z,1016.12
2018-08-24T11:35:35.948Z,1016.13
2018-08-24T11:36:37.016Z,1016.09
2018-08-24T11:37:35.845Z,1016.07
2018-08-24T11:38:35.975Z,1016.05
2018-08-24T11:39:36.119Z,1016.12
2018-08-24T11:40:36.020Z,1016.13
2018-08-24T11:41:35.895Z,1016.14
2018-08-24T11:42:36.445Z,1016.16
2018-08-24T11:43:36.040Z,1016.17
2018-08-24T11:44:35.949Z,1016.19
2018-08-24T11:45:36.466Z,1016.17
2018-08-24T11:46:36.001Z,1016.19
2018-08-24T11:47:36.381Z,1016.19
2018-08-24T11:48:36.088Z,1016.21
2018-08-24T11:49:36.017Z,1016.27
2018-08-24T11:50:36.240Z,1016.26
2018-08-24T11:51:36.200Z,1016.28
2018-08-24T11:52:35.919Z,1016.32
2018-08-24T11:53:36.040Z,1016.31
2018-08-24T11:54:36.618Z,1016.33
2018-08-24T11:55:35.861Z,1016.35
2018-08-24T11:56:36.085Z,1016.35
2018-08-24T11:57:36.135Z,1016.34
2018-08-24T11:58:35.965Z,1016.36
2018-08-24T11:59:35.943Z,1016.36
2018-08-24T12:00:36.055Z,1016.31
2018-08-24T12:01:36.166Z,1016.31
2018-08-24T12:02:35.971Z,1016.31
2018-08-24T12:03:36.401Z,1016.3
2018-08-24T12:04:35.977Z,1016.3
2018-08-24T12:05:36.088Z,1016.26
2018-08-24T12:06:35.992Z,1016.26
2018-08-24T12:07:36.060Z,1016.31
2018-08-24T12:08:35.953Z,1016.3
2018-08-24T12:09:37.141Z,1016.33